Time;durP1;ratioP1;P1;durP2;ratioP2;P2;SDS_P1;SDS_P2;PMS_P1;PMS_P2;Temp;Humidity;BMP_temperature;BMP_pressure;BME280_temperature;BME280_humidity;BME280_pressure;Samples;Min_cycle;Max_cycle;Signal;HPM_P1;HPM_P2
2023/07/16 00:01:28;;;;;;;5.50;5.07;;;;;;;17.16;100.00;100369.03;6092436;23;20014;-74
2023/07/16 00:03:55;;;;;;;5.32;5.10;;;;;;;17.13;100.00;100382.53;6101546;23;20051;-72
2023/07/16 00:06:21;;;;;;;6.13;5.60;;;;;;;17.92;100.00;100539.44;6109815;23;20025;-73
2023/07/16 00:08:53;;;;;;;5.60;5.30;;;;;;;17.88;100.00;100542.47;6115371;23;20022;-72
2023/07/16 00:11:22;;;;;;;5.55;5.25;;;;;;;17.47;100.00;100481.28;6094297;23;20018;-71
2023/07/16 00:13:49;;;;;;;5.53;5.22;;;;;;;17.77;100.00;100538.06;6113587;23;20026;-72
2023/07/16 00:16:16;;;;;;;6.80;6.40;;;;;;;16.79;100.00;100387.97;6112981;23;20086;-71
2023/07/16 00:18:46;;;;;;;5.20;5.00;;;;;;;16.86;100.00;100409.56;6113650;23;20099;-72
2023/07/16 00:21:16;;;;;;;6.10;5.60;;;;;;;17.69;100.00;100549.31;6112597;23;20029;-73
2023/07/16 00:23:47;;;;;;;5.60;5.30;;;;;;;17.65;100.00;100555.84;6096645;23;20046;-71
2023/07/16 00:26:17;;;;;;;5.30;5.00;;;;;;;17.63;100.00;100556.97;6109761;23;20248;-73
2023/07/16 00:28:46;;;;;;;13.77;5.68;;;;;;;17.62;100.00;100560.56;6083737;23;20084;-73
2023/07/16 00:31:13;;;;;;;5.63;5.13;;;;;;;17.40;100.00;100538.50;6112428;23;20816;-72
2023/07/16 00:33:48;;;;;;;6.00;5.50;;;;;;;17.50;100.00;100565.97;6086926;23;20492;-73
2023/07/16 00:36:18;;;;;;;;;;;;;;;17.47;100.00;100573.31;6059662;23;20370;-72
2023/07/16 00:38:45;;;;;;;5.50;5.20;;;;;;;17.49;100.00;100574.03;6108874;23;20471;-73
2023/07/16 00:41:25;;;;;;;5.75;5.38;;;;;;;17.43;100.00;100578.03;6087994;23;20033;-73
2023/07/16 00:43:54;;;;;;;5.70;5.40;;;;;;;17.41;100.00;100579.13;6080018;23;20518;-72
2023/07/16 00:46:21;;;;;;;5.40;5.05;;;;;;;17.49;100.00;100582.00;6112112;23;20040;-73
2023/07/16 00:48:48;;;;;;;5.70;5.40;;;;;;;17.38;100.00;100559.03;6078902;23;20636;-73
2023/07/16 00:51:16;;;;;;;5.55;5.25;;;;;;;17.45;100.00;100573.44;6110786;23;20024;-73
2023/07/16 00:53:52;;;;;;;5.40;5.10;;;;;;;17.35;100.00;100552.13;6059183;23;20029;-73
2023/07/16 00:56:19;;;;;;;5.40;5.10;;;;;;;17.14;100.00;100540.69;6113844;23;20031;-73
2023/07/16 00:58:46;;;;;;;5.60;5.30;;;;;;;17.19;100.00;100548.25;6110361;23;20054;-73
2023/07/16 01:01:13;;;;;;;5.50;5.20;;;;;;;17.15;100.00;100553.78;6105335;23;20088;-73
2023/07/16 01:03:40;;;;;;;5.80;5.40;;;;;;;16.77;100.00;100503.88;6080356;23;20025;-73
2023/07/16 01:06:24;;;;;;;5.97;5.45;;;;;;;17.11;100.00;100567.44;6086771;23;20092;-72
2023/07/16 01:09:12;;;;;;;5.57;5.28;;;;;;;16.89;100.00;100557.72;6086653;23;20046;-73
2023/07/16 01:11:46;;;;;;;7.18;5.50;;;;;;;16.97;100.00;100575.66;6104591;23;20023;-73
2023/07/16 01:14:25;;;;;;;5.40;5.10;;;;;;;16.62;100.00;100550.16;6091505;23;20036;-72
2023/07/16 01:16:58;;;;;;;5.63;5.32;;;;;;;16.34;100.00;100500.22;6114608;23;20009;-71
2023/07/16 01:19:27;;;;;;;5.75;5.35;;;;;;;16.43;100.00;100521.66;6111150;23;20041;-72
2023/07/16 01:22:23;;;;;;;5.55;5.20;;;;;;;16.79;100.00;100584.09;6112891;23;20024;-72
2023/07/16 01:25:30;;;;;;;13.18;5.68;;;;;;;16.74;100.00;100587.13;6114505;23;20037;-72
2023/07/16 01:28:22;;;;;;;5.22;4.93;;;;;;;16.15;100.00;100505.28;6112495;23;20017;-72
2023/07/16 01:30:54;;;;;;;6.07;5.68;;;;;;;16.66;100.00;100586.91;6085958;23;20046;-72
2023/07/16 01:33:25;;;;;;;8.85;5.57;;;;;;;16.67;100.00;100591.22;6111676;23;20044;-72
2023/07/16 01:35:53;;;;;;;6.03;5.63;;;;;;;16.63;100.00;100597.72;6084663;23;20086;-72
2023/07/16 01:38:23;;;;;;;6.13;5.55;;;;;;;16.65;100.00;100594.97;6093659;23;20039;-72
2023/07/16 01:40:49;;;;;;;5.82;5.40;;;;;;;16.09;100.00;100508.44;6107584;23;20734;-72
2023/07/16 01:43:16;;;;;;;6.45;5.22;;;;;;;16.34;100.00;100568.25;6113747;23;20089;-73
2023/07/16 01:45:46;;;;;;;5.75;5.45;;;;;;;16.42;100.00;100581.75;6086310;23;20044;-72
2023/07/16 01:48:37;;;;;;;7.43;5.53;;;;;;;16.55;100.00;100602.78;6114111;23;20033;-72
2023/07/16 01:51:05;;;;;;;5.68;5.30;;;;;;;16.22;100.00;100559.47;6059546;23;20033;-72
2023/07/16 01:53:32;;;;;;;5.50;5.20;;;;;;;16.55;100.00;100614.22;6115203;23;20025;-72
2023/07/16 01:56:02;;;;;;;5.45;5.15;;;;;;;16.52;100.00;100618.94;6115624;23;20586;-72
2023/07/16 01:58:34;;;;;;;5.55;5.25;;;;;;;16.08;100.00;100536.72;6112918;23;20021;-73
2023/07/16 02:01:03;;;;;;;6.28;5.53;;;;;;;16.29;100.00;100576.53;6115456;23;20048;-73
2023/07/16 02:03:39;;;;;;;7.20;5.57;;;;;;;16.18;100.00;100543.91;6094001;23;20624;-72
2023/07/16 02:06:05;;;;;;;5.22;4.95;;;;;;;16.24;100.00;100556.69;6115882;23;20098;-72
2023/07/16 02:08:35;;;;;;;5.65;5.28;;;;;;;16.35;100.00;100578.72;6113758;23;20037;-73
2023/07/16 02:11:01;;;;;;;5.80;5.40;;;;;;;16.43;100.00;100594.00;6115055;23;20515;-73
2023/07/16 02:13:30;;;;;;;5.40;5.10;;;;;;;16.39;100.00;100592.56;6114243;23;20625;-73
2023/07/16 02:15:57;;;;;;;5.47;5.07;;;;;;;16.34;100.00;100579.69;6089570;23;20055;-72
2023/07/16 02:18:29;;;;;;;5.55;5.25;;;;;;;16.27;100.00;100583.75;6085378;23;20058;-72
2023/07/16 02:20:56;;;;;;;;;;;;;;;16.46;100.00;100609.66;6080056;23;20596;-72
2023/07/16 02:23:26;;;;;;;5.90;5.40;;;;;;;16.45;100.00;100621.22;6115856;23;20320;-73
2023/07/16 02:25:55;;;;;;;5.20;4.90;;;;;;;16.45;100.00;100623.03;6096414;23;20087;-72
2023/07/16 02:28:40;;;;;;;5.68;5.28;;;;;;;15.56;100.00;100477.22;6110816;23;20033;-73
2023/07/16 02:31:09;;;;;;;5.93;5.35;;;;;;;16.45;100.00;100612.44;6111860;23;21595;-73
2023/07/16 02:33:38;;;;;;;5.60;5.30;;;;;;;16.00;100.00;100543.56;6083910;23;20032;-72
2023/07/16 02:36:06;;;;;;;5.85;5.35;;;;;;;15.95;100.00;100530.69;6096157;23;20021;-72
2023/07/16 02:38:33;;;;;;;5.68;5.35;;;;;;;16.13;100.00;100568.13;6083230;23;20103;-73
2023/07/16 02:40:59;;;;;;;6.78;5.65;;;;;;;16.31;100.00;100587.84;6089543;23;20088;-74
2023/07/16 02:43:26;;;;;;;5.38;4.97;;;;;;;16.37;100.00;100596.28;6113259;23;20031;-73
2023/07/16 02:45:52;;;;;;;5.00;4.80;;;;;;;16.15;100.00;100569.66;6087129;23;20102;-72
2023/07/16 02:48:18;;;;;;;5.40;5.10;;;;;;;16.37;100.00;100606.88;6109092;23;20013;-73
2023/07/16 02:50:45;;;;;;;5.55;5.25;;;;;;;15.93;100.00;100541.38;6082888;23;20018;-71
2023/07/16 02:53:12;;;;;;;5.32;5.03;;;;;;;16.25;100.00;100601.56;6113311;23;20017;-72
2023/07/16 02:55:38;;;;;;;8.43;5.55;;;;;;;16.08;100.00;100588.81;6086159;23;20501;-72
2023/07/16 02:58:05;;;;;;;5.40;5.10;;;;;;;16.37;100.00;100610.38;6113088;23;20006;-73
2023/07/16 03:00:32;;;;;;;5.35;5.05;;;;;;;16.31;100.00;100611.69;6072120;23;20030;-72
2023/07/16 03:02:59;;;;;;;5.68;5.35;;;;;;;15.94;100.00;100545.72;6083129;23;20017;-72
2023/07/16 03:05:27;;;;;;;5.65;5.25;;;;;;;16.25;100.00;100598.94;6097067;23;20641;-72
2023/07/16 03:07:54;;;;;;;6.47;5.13;;;;;;;16.27;100.00;100604.13;6070405;23;20025;-72
2023/07/16 03:10:21;;;;;;;5.55;5.15;;;;;;;16.20;100.00;100609.06;6111451;23;20010;-72
2023/07/16 03:12:48;;;;;;;7.03;5.75;;;;;;;16.15;100.00;100619.13;6110107;23;20340;-72
2023/07/16 03:15:14;;;;;;;5.30;5.00;;;;;;;16.07;100.00;100624.19;6118671;23;20404;-73
2023/07/16 03:17:41;;;;;;;5.30;5.00;;;;;;;15.76;100.00;100584.19;6034150;23;20029;-73
2023/07/16 03:20:17;;;;;;;5.57;5.18;;;;;;;16.00;100.00;100628.28;6089984;23;20825;-73
2023/07/16 03:22:46;;;;;;;6.22;5.65;;;;;;;15.58;100.00;100541.41;6110743;23;20084;-70
2023/07/16 03:25:16;;;;;;;;;;;;;;;16.04;100.00;100640.31;6088531;23;20052;-70
2023/07/16 03:27:43;;;;;;;5.70;5.40;;;;;;;16.01;100.00;100635.25;6082910;23;19916;-72
2023/07/16 03:30:18;;;;;;;5.32;5.03;;;;;;;15.49;100.00;100540.28;6114996;23;20116;-71
2023/07/16 03:32:51;;;;;;;5.45;5.15;;;;;;;15.72;100.00;100590.63;6059870;23;20039;-71
2023/07/16 03:35:19;;;;;;;5.20;4.90;;;;;;;15.98;100.00;100630.19;6117267;23;20026;-71
2023/07/16 03:37:47;;;;;;;6.72;5.25;;;;;;;15.93;100.00;100636.66;6094451;23;20052;-71
2023/07/16 03:40:23;;;;;;;5.28;4.97;;;;;;;15.49;100.00;100564.09;6108121;23;20089;-70
2023/07/16 03:42:57;;;;;;;5.60;5.07;;;;;;;15.81;100.00;100628.81;6069664;23;20061;-71
2023/07/16 03:45:24;;;;;;;9.43;5.50;;;;;;;15.67;100.00;100600.72;6106864;23;20025;-72
2023/07/16 03:47:55;;;;;;;5.70;5.13;;;;;;;14.83;100.00;100462.41;6085038;23;20029;-71
2023/07/16 03:50:25;;;;;;;5.30;5.00;;;;;;;15.41;100.00;100557.69;6103195;23;20037;-71
2023/07/16 03:52:54;;;;;;;6.65;5.10;;;;;;;15.93;100.00;100647.25;6102518;23;20026;-71
2023/07/16 03:55:21;;;;;;;5.68;5.28;;;;;;;15.55;100.00;100576.88;6084457;23;20022;-71
2023/07/16 03:57:47;;;;;;;5.65;5.28;;;;;;;15.75;100.00;100615.09;6117120;23;20025;-72
2023/07/16 04:00:14;;;;;;;5.40;4.97;;;;;;;15.99;100.00;100642.44;6112821;23;20079;-71
2023/07/16 04:02:40;;;;;;;5.65;5.18;;;;;;;15.59;100.00;100587.22;6110805;23;20021;-72
2023/07/16 04:05:07;;;;;;;6.05;5.30;;;;;;;16.00;100.00;100660.88;6109778;23;20614;-71
2023/07/16 04:07:34;;;;;;;5.28;4.97;;;;;;;15.79;100.00;100601.63;6110129;23;20385;-72
2023/07/16 04:10:00;;;;;;;5.25;4.95;;;;;;;15.93;100.00;100615.47;6115054;23;20087;-71
2023/07/16 04:12:27;;;;;;;5.30;5.10;;;;;;;16.20;100.00;100638.19;6113739;23;20123;-71
2023/07/16 04:14:56;;;;;;;5.70;5.30;;;;;;;16.37;100.00;100642.16;6111574;23;20444;-71
2023/07/16 04:17:23;;;;;;;5.85;5.13;;;;;;;16.70;99.22;100627.25;6112204;23;20574;-71
2023/07/16 04:19:50;;;;;;;5.90;5.40;;;;;;;17.30;94.28;100618.00;6110428;23;20099;-71
2023/07/16 04:22:17;;;;;;;5.65;5.32;;;;;;;17.78;90.01;100582.22;6110406;23;20048;-71
2023/07/16 04:24:43;;;;;;;6.40;5.68;;;;;;;18.30;84.31;100540.59;6112572;23;20021;-71
2023/07/16 04:27:09;;;;;;;5.93;5.40;;;;;;;18.90;80.88;100521.16;6113763;23;20013;-72
2023/07/16 04:29:36;;;;;;;5.85;5.55;;;;;;;19.06;78.07;100432.84;6115104;23;20067;-72
2023/07/16 04:32:03;;;;;;;8.10;5.30;;;;;;;19.63;75.61;100422.22;6109083;23;20033;-71
2023/07/16 04:34:29;;;;;;;6.00;5.43;;;;;;;20.27;72.06;100423.22;6107749;23;20057;-71
2023/07/16 04:36:56;;;;;;;5.95;5.35;;;;;;;20.61;69.97;100394.09;6110070;23;20021;-71
2023/07/16 04:39:22;;;;;;;6.20;5.70;;;;;;;20.48;68.34;100317.13;6083185;23;20480;-73
2023/07/16 04:41:49;;;;;;;6.10;5.72;;;;;;;21.14;66.96;100351.50;6114560;23;20530;-72
2023/07/16 04:44:15;;;;;;;8.27;5.90;;;;;;;21.70;66.38;100366.16;6114277;23;20037;-72
2023/07/16 04:46:41;;;;;;;6.50;6.00;;;;;;;21.74;64.17;100295.41;6086045;23;20037;-72
2023/07/16 04:49:08;;;;;;;9.35;5.80;;;;;;;21.99;63.05;100271.41;6115768;23;20033;-72
2023/07/16 04:51:34;;;;;;;5.95;5.55;;;;;;;22.47;61.40;100272.47;6082926;23;20028;-72
2023/07/16 04:54:01;;;;;;;6.13;5.72;;;;;;;22.25;59.81;100204.47;6114208;23;20122;-72
2023/07/16 04:56:27;;;;;;;5.95;5.65;;;;;;;22.37;59.63;100211.16;6092662;23;20413;-72
2023/07/16 04:58:53;;;;;;;6.35;6.00;;;;;;;22.42;57.63;100157.16;6113533;23;20026;-73
2023/07/16 05:01:20;;;;;;;6.38;5.80;;;;;;;22.57;57.55;100155.47;6115400;23;20029;-73
2023/07/16 05:03:47;;;;;;;6.47;5.95;;;;;;;22.91;56.79;100148.97;6114648;23;20076;-73
2023/07/16 05:06:13;;;;;;;7.20;6.63;;;;;;;23.04;55.22;100137.75;6091474;23;19997;-72
2023/07/16 05:08:40;;;;;;;6.10;5.78;;;;;;;22.57;55.88;100047.63;6092038;23;20041;-72
2023/07/16 05:11:06;;;;;;;6.35;5.78;;;;;;;22.98;55.57;100131.22;6113904;23;20016;-72
2023/07/16 05:13:33;;;;;;;6.05;5.65;;;;;;;23.29;54.74;100125.03;6118230;23;20057;-72
2023/07/16 05:15:59;;;;;;;6.55;6.10;;;;;;;23.66;53.89;100118.09;6115753;23;20130;-72
2023/07/16 05:18:26;;;;;;;6.10;5.60;;;;;;;23.72;53.61;100117.38;6113240;23;20372;-72
2023/07/16 05:20:52;;;;;;;6.40;6.00;;;;;;;23.82;51.62;100051.00;6111609;23;20045;-72
2023/07/16 05:23:19;;;;;;;6.00;5.60;;;;;;;24.05;51.95;100130.53;6114382;23;20034;-72
2023/07/16 05:25:47;;;;;;;7.32;6.65;;;;;;;23.39;52.16;100079.31;6110170;23;20036;-72
2023/07/16 05:28:18;;;;;;;6.57;6.13;;;;;;;23.47;51.97;100093.47;6111515;23;20219;-72
2023/07/16 05:30:44;;;;;;;6.85;6.18;;;;;;;23.95;51.41;100168.28;6112320;23;20084;-72
2023/07/16 05:33:11;;;;;;;6.00;5.60;;;;;;;24.28;51.11;100189.47;6089976;23;20093;-72
2023/07/16 05:35:39;;;;;;;6.30;5.90;;;;;;;24.40;50.15;100174.59;6089518;23;20025;-72
2023/07/16 05:38:05;;;;;;;6.40;5.90;;;;;;;23.57;50.54;100103.94;6083377;23;20018;-72
2023/07/16 05:40:32;;;;;;;6.38;5.72;;;;;;;24.01;50.36;100215.00;6089389;23;20029;-72
2023/07/16 05:42:59;;;;;;;6.57;6.18;;;;;;;23.85;50.93;100186.47;6109218;23;20678;-72
2023/07/16 05:45:25;;;;;;;6.68;6.18;;;;;;;24.34;48.90;100163.78;6092225;23;20101;-72
2023/07/16 05:47:52;;;;;;;6.45;6.05;;;;;;;23.69;50.14;100145.38;6111440;23;20111;-72
2023/07/16 05:50:18;;;;;;;6.53;6.13;;;;;;;24.15;49.78;100245.56;6112570;23;20678;-72
2023/07/16 05:52:47;;;;;;;6.97;6.38;;;;;;;23.97;50.17;100237.81;6114239;23;20020;-72
2023/07/16 05:55:14;;;;;;;6.57;6.10;;;;;;;24.81;48.62;100291.44;6089545;23;20025;-71
2023/07/16 05:57:41;;;;;;;6.40;5.90;;;;;;;24.25;47.94;100163.00;6111635;23;20718;-72
2023/07/16 06:00:08;;;;;;;8.30;6.57;;;;;;;24.78;47.26;100203.25;6113169;23;20021;-72
2023/07/16 06:02:35;;;;;;;6.20;5.85;;;;;;;24.40;47.20;100171.09;6083955;23;20080;-72
2023/07/16 06:05:02;;;;;;;6.90;6.40;;;;;;;25.02;46.74;100227.13;6106966;23;20025;-72
2023/07/16 06:07:28;;;;;;;6.65;6.22;;;;;;;25.36;46.44;100260.66;6113619;23;20029;-72
2023/07/16 06:09:55;;;;;;;7.55;6.95;;;;;;;25.16;45.95;100232.66;6087549;23;20052;-72
2023/07/16 06:12:21;;;;;;;7.50;6.38;;;;;;;25.55;46.10;100277.19;6085880;23;20497;-71
2023/07/16 06:14:47;;;;;;;7.03;6.43;;;;;;;25.37;45.42;100239.97;6110252;23;20033;-72
2023/07/16 06:17:14;;;;;;;8.93;6.80;;;;;;;24.95;46.23;100255.72;6110181;23;20037;-72
2023/07/16 06:19:40;;;;;;;6.40;6.00;;;;;;;24.92;46.00;100241.81;6116294;23;20503;-72
2023/07/16 06:22:08;;;;;;;7.38;6.78;;;;;;;24.72;46.98;100293.38;6107488;23;20702;-72
2023/07/16 06:24:35;;;;;;;6.55;6.05;;;;;;;24.83;45.87;100259.88;6114528;23;20021;-71
2023/07/16 06:27:01;;;;;;;7.00;6.50;;;;;;;24.68;46.00;100276.81;6080727;23;20097;-72
2023/07/16 06:29:28;;;;;;;6.60;6.20;;;;;;;24.17;46.63;100291.78;6112355;23;20089;-72
2023/07/16 06:31:58;;;;;;;7.22;6.50;;;;;;;23.09;48.11;100229.03;6090392;23;20580;-71
2023/07/16 06:34:25;;;;;;;6.78;6.38;;;;;;;22.88;50.64;100382.94;6091178;23;20033;-71
2023/07/16 06:36:52;;;;;;;7.50;6.80;;;;;;;22.51;51.29;100407.50;6075326;23;20025;-73
2023/07/16 06:39:18;;;;;;;9.55;6.80;;;;;;;21.98;52.28;100393.47;6111430;23;20025;-72
2023/07/16 06:41:45;;;;;;;7.35;6.60;;;;;;;22.17;52.69;100418.25;6106829;23;20111;-72
2023/07/16 06:44:11;;;;;;;7.30;6.60;;;;;;;22.01;52.02;100411.03;6114337;23;20109;-72
2023/07/16 06:46:37;;;;;;;7.15;6.65;;;;;;;21.73;53.16;100419.28;6109033;23;20050;-73
2023/07/16 06:49:06;;;;;;;8.10;7.15;;;;;;;21.57;53.09;100403.16;6107705;23;20014;-71
2023/07/16 06:51:32;;;;;;;7.55;6.80;;;;;;;21.58;53.15;100413.69;6085747;23;20022;-72
2023/07/16 06:53:59;;;;;;;7.35;6.43;;;;;;;21.22;53.11;100347.03;6112688;23;20025;-71
2023/07/16 06:56:26;;;;;;;7.28;6.57;;;;;;;21.34;53.73;100406.31;6111759;23;20053;-71
2023/07/16 06:58:53;;;;;;;7.65;6.90;;;;;;;21.48;53.29;100381.75;6110734;23;20030;-72
2023/07/16 07:01:19;;;;;;;7.72;6.63;;;;;;;21.85;53.25;100428.69;6109750;23;20055;-71
2023/07/16 07:03:46;;;;;;;7.10;6.57;;;;;;;21.81;52.23;100381.91;6109716;23;20025;-72
2023/07/16 07:06:15;;;;;;;7.78;7.03;;;;;;;21.94;52.94;100410.00;6113204;23;20089;-72
2023/07/16 07:08:41;;;;;;;8.13;6.95;;;;;;;21.33;52.17;100308.56;6110593;23;20080;-71
2023/07/16 07:11:08;;;;;;;7.20;6.60;;;;;;;21.97;52.40;100409.66;6083834;23;20033;-71
2023/07/16 07:13:34;;;;;;;9.50;7.03;;;;;;;21.96;52.03;100403.50;6088979;23;20185;-71
2023/07/16 07:16:01;;;;;;;10.05;7.70;;;;;;;21.69;52.05;100353.81;6109120;23;20036;-71
2023/07/16 07:18:27;;;;;;;7.57;6.40;;;;;;;21.31;53.57;100393.31;6113642;23;20013;-71
2023/07/16 07:20:54;;;;;;;7.40;6.70;;;;;;;21.58;54.78;100471.59;6110688;23;20049;-71
2023/07/16 07:23:20;;;;;;;7.47;6.95;;;;;;;21.43;53.60;100397.41;6116916;23;20043;-71
2023/07/16 07:25:51;;;;;;;9.85;7.00;;;;;;;21.86;52.66;100421.50;6060866;23;20038;-71
2023/07/16 07:28:22;;;;;;;7.65;6.57;;;;;;;21.26;51.69;100311.03;6107550;23;20634;-69
2023/07/16 07:30:48;;;;;;;8.32;6.75;;;;;;;20.79;53.59;100311.41;6112920;23;20033;-71
2023/07/16 07:33:15;;;;;;;8.27;6.45;;;;;;;21.36;52.44;100387.50;6114731;23;20029;-71
2023/07/16 07:35:41;;;;;;;7.82;6.68;;;;;;;21.45;52.15;100371.41;6113919;23;20021;-71
2023/07/16 07:38:08;;;;;;;10.98;6.57;;;;;;;21.46;52.41;100401.59;6113697;23;20026;-73
2023/07/16 07:40:34;;;;;;;7.63;6.88;;;;;;;21.47;53.14;100396.09;6114932;23;20033;-74
2023/07/16 07:43:01;;;;;;;8.05;6.85;;;;;;;21.59;52.97;100406.50;6085484;23;20455;-72
2023/07/16 07:45:27;;;;;;;6.75;6.32;;;;;;;21.65;51.98;100358.63;6109793;23;20034;-70
2023/07/16 07:47:54;;;;;;;12.38;6.82;;;;;;;21.65;52.14;100387.16;6110382;23;20086;-72
2023/07/16 07:50:20;;;;;;;8.13;6.60;;;;;;;21.92;51.80;100413.66;6111447;23;20091;-70
2023/07/16 07:52:47;;;;;;;7.35;6.82;;;;;;;21.56;51.06;100306.19;6108892;23;20033;-71
2023/07/16 07:55:13;;;;;;;7.00;6.50;;;;;;;22.23;50.54;100370.34;6079573;23;20022;-71
2023/07/16 07:57:40;;;;;;;7.30;6.63;;;;;;;22.57;51.24;100460.38;6114556;23;20052;-71
2023/07/16 08:00:11;;;;;;;7.57;6.88;;;;;;;22.57;49.90;100325.78;6085404;23;20871;-71
2023/07/16 08:02:38;;;;;;;7.47;6.60;;;;;;;22.24;50.33;100352.50;6115548;23;20361;-72
2023/07/16 08:05:05;;;;;;;6.63;6.03;;;;;;;22.08;49.62;100322.03;6089035;23;20025;-71
2023/07/16 08:07:31;;;;;;;8.60;6.43;;;;;;;21.81;51.43;100391.75;6112774;23;20034;-71
2023/07/16 08:09:58;;;;;;;7.03;6.43;;;;;;;22.19;50.82;100425.13;6112130;23;20025;-72
2023/07/16 08:12:24;;;;;;;6.85;6.25;;;;;;;22.10;50.09;100368.13;6111314;23;20199;-72
2023/07/16 08:14:51;;;;;;;7.30;6.80;;;;;;;21.97;49.73;100319.69;6106587;23;20024;-70
2023/07/16 08:17:17;;;;;;;9.90;6.53;;;;;;;22.45;50.22;100434.91;6107549;23;20508;-68
2023/07/16 08:19:47;;;;;;;7.03;6.43;;;;;;;22.76;48.99;100370.91;6077804;23;20101;-69
2023/07/16 08:22:14;;;;;;;6.85;6.45;;;;;;;23.01;49.53;100419.94;6111952;23;20045;-69
2023/07/16 08:24:40;;;;;;;7.05;6.55;;;;;;;22.97;48.46;100340.13;6103012;23;20029;-69
2023/07/16 08:27:06;;;;;;;6.90;6.40;;;;;;;22.84;47.75;100338.81;6107788;23;20157;-69
2023/07/16 08:29:35;;;;;;;9.63;6.97;;;;;;;22.20;48.48;100289.66;6113326;23;20604;-68
2023/07/16 08:32:03;;;;;;;8.75;6.88;;;;;;;22.17;49.07;100384.38;6108866;23;20038;-69
2023/07/16 08:34:29;;;;;;;6.95;6.38;;;;;;;22.26;47.84;100319.25;6111183;23;20499;-68
2023/07/16 08:36:55;;;;;;;7.20;6.63;;;;;;;22.40;47.12;100322.28;6083162;23;20218;-69
2023/07/16 08:39:22;;;;;;;6.95;6.35;;;;;;;22.36;47.37;100334.31;6108527;23;20034;-69
2023/07/16 08:41:51;;;;;;;6.90;6.40;;;;;;;22.47;48.20;100384.75;6080534;23;20022;-68
2023/07/16 08:44:18;;;;;;;6.88;6.28;;;;;;;22.26;48.73;100355.84;6111894;23;20085;-69
2023/07/16 08:46:45;;;;;;;7.10;6.40;;;;;;;22.27;48.26;100344.13;6088074;23;20534;-69
2023/07/16 08:49:12;;;;;;;7.00;6.40;;;;;;;21.71;48.27;100304.56;6109742;23;20033;-69
2023/07/16 08:51:39;;;;;;;7.03;6.35;;;;;;;22.14;47.65;100314.38;6104428;23;20112;-69
2023/07/16 08:54:06;;;;;;;7.10;6.50;;;;;;;22.21;46.91;100308.19;6091017;23;20017;-69
2023/07/16 08:56:32;;;;;;;6.65;6.20;;;;;;;22.49;47.10;100330.13;6112980;23;20029;-68
2023/07/16 08:58:59;;;;;;;6.97;6.32;;;;;;;22.28;47.24;100327.94;6110406;23;20017;-69
2023/07/16 09:01:27;;;;;;;6.95;6.35;;;;;;;22.75;45.74;100309.56;6111319;23;20089;-69
2023/07/16 09:03:54;;;;;;;7.18;6.65;;;;;;;22.62;46.23;100316.25;6109673;23;20021;-68
2023/07/16 09:06:20;;;;;;;6.40;6.00;;;;;;;23.62;46.44;100443.63;6106818;23;20020;-69
2023/07/16 09:08:47;;;;;;;6.70;6.20;;;;;;;23.66;45.67;100400.25;6113113;23;20435;-69
2023/07/16 09:11:14;;;;;;;7.75;5.97;;;;;;;23.46;45.45;100353.44;6089688;23;20014;-68
2023/07/16 09:13:49;;;;;;;6.60;6.20;;;;;;;23.14;45.41;100295.47;6115001;23;20101;-69
2023/07/16 09:16:18;;;;;;;6.70;6.10;;;;;;;23.31;45.30;100345.25;6110383;23;20528;-68
2023/07/16 09:18:45;;;;;;;6.82;6.25;;;;;;;23.24;45.00;100363.88;6090366;23;20021;-69
2023/07/16 09:21:11;;;;;;;6.80;6.30;;;;;;;22.87;45.82;100332.28;6111360;23;20036;-69
2023/07/16 09:23:38;;;;;;;7.00;6.07;;;;;;;23.33;45.31;100375.38;6110000;23;20013;-68
2023/07/16 09:26:04;;;;;;;7.00;6.55;;;;;;;24.01;45.38;100442.84;6110078;23;20024;-71
2023/07/16 09:28:31;;;;;;;10.30;6.45;;;;;;;23.86;45.67;100462.34;6117127;23;20052;-69
2023/07/16 09:31:06;;;;;;;7.07;6.45;;;;;;;23.71;45.06;100378.28;6114115;23;20053;-70
2023/07/16 09:33:33;;;;;;;8.00;6.40;;;;;;;23.28;46.17;100400.00;6115111;23;20228;-69
2023/07/16 09:36:00;;;;;;;7.93;6.22;;;;;;;23.63;45.55;100402.41;6110207;23;20092;-70
2023/07/16 09:38:29;;;;;;;7.00;6.45;;;;;;;23.85;44.83;100433.88;6118929;23;20056;-69
2023/07/16 09:40:56;;;;;;;6.97;6.40;;;;;;;23.67;44.63;100403.75;6111739;23;20673;-69
2023/07/16 09:43:23;;;;;;;6.40;5.93;;;;;;;22.59;45.38;100271.13;6115837;23;20029;-69
2023/07/16 09:45:49;;;;;;;6.65;6.13;;;;;;;23.80;45.34;100446.13;6088678;23;20140;-69
2023/07/16 09:48:16;;;;;;;6.85;6.35;;;;;;;24.41;45.16;100524.94;6116601;23;20009;-69
2023/07/16 09:50:51;;;;;;;6.50;6.10;;;;;;;24.34;44.08;100394.44;6098357;23;20029;-69
2023/07/16 09:53:19;;;;;;;6.97;6.30;;;;;;;24.51;43.91;100428.19;6109934;23;20175;-69
2023/07/16 09:55:46;;;;;;;6.82;6.22;;;;;;;24.81;43.47;100452.47;6092139;23;20029;-69
2023/07/16 09:58:16;;;;;;;6.47;6.07;;;;;;;24.15;43.56;100326.81;6113246;23;20499;-69
2023/07/16 10:00:43;;;;;;;7.00;6.40;;;;;;;24.40;43.33;100378.44;6113083;23;20031;-69
2023/07/16 10:03:10;;;;;;;6.80;6.30;;;;;;;24.15;44.58;100401.06;6112970;23;20014;-69
2023/07/16 10:05:37;;;;;;;6.80;6.30;;;;;;;24.08;45.30;100447.34;6115044;23;20045;-69
2023/07/16 10:08:04;;;;;;;7.30;6.72;;;;;;;23.91;44.73;100400.16;6061362;23;20639;-69
2023/07/16 10:10:49;;;;;;;6.30;5.90;;;;;;;24.51;44.63;100497.13;6118571;23;20046;-69
2023/07/16 10:13:16;;;;;;;6.20;5.80;;;;;;;24.66;44.34;100458.63;6112919;23;20041;-69
2023/07/16 10:15:57;;;;;;;6.70;6.10;;;;;;;24.30;44.44;100439.53;6112359;23;20022;-69
2023/07/16 10:18:27;;;;;;;6.50;6.10;;;;;;;24.62;43.55;100435.84;6115353;23;20017;-69
2023/07/16 10:20:59;;;;;;;6.97;6.35;;;;;;;24.92;43.16;100462.81;6089967;23;20017;-68
2023/07/16 10:23:38;;;;;;;7.07;6.47;;;;;;;24.67;42.42;100387.81;6116336;23;20522;-68
2023/07/16 10:26:15;;;;;;;14.45;13.68;;;;;;;24.55;41.61;100324.88;6011266;23;20283;-69
2023/07/16 10:28:46;;;;;;;6.70;6.20;;;;;;;25.28;41.87;100451.47;6111870;23;20029;-68
2023/07/16 10:31:23;;;;;;;6.60;6.10;;;;;;;25.53;40.43;100371.41;6109286;23;20095;-68
2023/07/16 10:34:07;;;;;;;6.70;6.10;;;;;;;25.40;40.27;100363.19;6114314;23;20035;-68
2023/07/16 10:36:41;;;;;;;6.10;5.72;;;;;;;24.54;41.20;100291.03;6087931;23;20100;-71
2023/07/16 10:39:08;;;;;;;6.72;6.22;;;;;;;25.40;40.98;100431.19;6113606;23;20095;-68
2023/07/16 10:41:34;;;;;;;6.75;6.30;;;;;;;25.62;39.60;100372.19;6113430;23;20098;-68
2023/07/16 10:44:01;;;;;;;6.22;5.82;;;;;;;25.45;39.85;100369.66;6111146;23;20030;-69
2023/07/16 10:46:28;;;;;;;7.32;6.68;;;;;;;25.56;40.13;100395.25;6112187;23;20029;-69
2023/07/16 10:48:54;;;;;;;6.97;6.47;;;;;;;25.16;40.07;100348.13;6091992;23;20088;-69
2023/07/16 10:51:30;;;;;;;6.70;6.05;;;;;;;25.12;40.16;100368.31;6084579;23;20976;-68
2023/07/16 10:53:57;;;;;;;6.60;6.10;;;;;;;25.05;40.95;100419.22;6111886;23;20021;-69
2023/07/16 10:56:24;;;;;;;6.25;5.85;;;;;;;24.94;41.12;100385.59;6085730;23;20550;-69
2023/07/16 10:58:51;;;;;;;6.35;5.95;;;;;;;24.53;41.61;100379.72;6102692;23;20029;-69
2023/07/16 11:01:17;;;;;;;6.72;6.30;;;;;;;24.83;41.37;100426.28;6109100;23;20092;-69
2023/07/16 11:03:45;;;;;;;8.15;6.20;;;;;;;24.59;41.93;100400.47;6113996;23;20018;-70
2023/07/16 11:06:15;;;;;;;6.63;6.13;;;;;;;24.61;42.89;100461.00;6109409;23;20024;-68
2023/07/16 11:08:42;;;;;;;6.43;6.03;;;;;;;25.09;41.48;100467.00;6109001;23;20029;-68
2023/07/16 11:11:09;;;;;;;7.10;6.50;;;;;;;24.79;40.82;100361.41;6084658;23;20188;-69
2023/07/16 11:13:35;;;;;;;7.70;6.15;;;;;;;25.27;41.16;100447.91;6113956;23;20096;-69
2023/07/16 11:16:08;;;;;;;6.32;5.93;;;;;;;25.58;40.96;100486.41;6109860;23;20120;-69
2023/07/16 11:18:36;;;;;;;6.57;6.13;;;;;;;25.57;40.14;100439.91;6090692;23;20038;-69
2023/07/16 11:21:03;;;;;;;6.55;6.15;;;;;;;26.02;39.72;100430.00;6108843;23;20025;-69
2023/07/16 11:23:33;;;;;;;6.45;5.93;;;;;;;25.58;39.59;100349.34;6116382;23;20032;-70
2023/07/16 11:26:03;;;;;;;6.85;6.18;;;;;;;25.72;39.74;100379.94;6089457;23;20025;-70
2023/07/16 11:28:40;;;;;;;6.15;5.70;;;;;;;25.80;39.53;100414.75;6111320;23;20016;-70